sensor_id;sensor_type;location;lat;lon;timestamp;pressure;altitude;pressure_sealevel;temperature
68952;BMP180;56000;51.146;17.112;2022-09-06T00:01:22;101004.00;;;16.20
68952;BMP180;56000;51.146;17.112;2022-09-06T00:03:52;101005.00;;;16.10
68952;BMP180;56000;51.146;17.112;2022-09-06T00:06:21;101003.40;;;16.10
68952;BMP180;56000;51.146;17.112;2022-09-06T00:08:50;101005.80;;;16.10
68952;BMP180;56000;51.146;17.112;2022-09-06T00:11:20;101005.60;;;16.00
68952;BMP180;56000;51.146;17.112;2022-09-06T00:13:50;101000.60;;;16.00
68952;BMP180;56000;51.146;17.112;2022-09-06T00:16:22;100996.20;;;15.90
68952;BMP180;56000;51.146;17.112;2022-09-06T00:18:57;100993.80;;;15.82
68952;BMP180;56000;51.146;17.112;2022-09-06T00:21:30;100991.00;;;15.80
68952;BMP180;56000;51.146;17.112;2022-09-06T00:23:59;100989.20;;;15.70
68952;BMP180;56000;51.146;17.112;2022-09-06T00:26:29;100990.80;;;15.70
68952;BMP180;56000;51.146;17.112;2022-09-06T00:28:58;100988.20;;;15.60
68952;BMP180;56000;51.146;17.112;2022-09-06T00:31:28;100990.20;;;15.60
68952;BMP180;56000;51.146;17.112;2022-09-06T00:33:57;100984.00;;;15.50
68952;BMP180;56000;51.146;17.112;2022-09-06T00:36:27;100983.40;;;15.50
68952;BMP180;56000;51.146;17.112;2022-09-06T00:38:57;100983.20;;;15.40
68952;BMP180;56000;51.146;17.112;2022-09-06T00:41:26;100985.20;;;15.40
68952;BMP180;56000;51.146;17.112;2022-09-06T00:43:56;100984.00;;;15.30
68952;BMP180;56000;51.146;17.112;2022-09-06T00:46:28;100983.00;;;15.30
68952;BMP180;56000;51.146;17.112;2022-09-06T00:49:03;100983.40;;;15.20
68952;BMP180;56000;51.146;17.112;2022-09-06T00:51:36;100982.60;;;15.20
68952;BMP180;56000;51.146;17.112;2022-09-06T00:54:08;100982.40;;;15.10
68952;BMP180;56000;51.146;17.112;2022-09-06T00:56:41;100984.40;;;15.10
68952;BMP180;56000;51.146;17.112;2022-09-06T00:59:11;100983.00;;;15.02
68952;BMP180;56000;51.146;17.112;2022-09-06T01:01:41;100984.40;;;15.00
68952;BMP180;56000;51.146;17.112;2022-09-06T01:04:11;100983.20;;;14.96
68952;BMP180;56000;51.146;17.112;2022-09-06T01:06:54;100982.60;;;14.90
68952;BMP180;56000;51.146;17.112;2022-09-06T01:09:51;100983.00;;;14.90
68952;BMP180;56000;51.146;17.112;2022-09-06T01:12:39;100979.80;;;14.90
68952;BMP180;56000;51.146;17.112;2022-09-06T01:15:23;100981.40;;;14.90
68952;BMP180;56000;51.146;17.112;2022-09-06T01:18:10;100976.40;;;14.90
68952;BMP180;56000;51.146;17.112;2022-09-06T01:20:54;100983.00;;;14.90
68952;BMP180;56000;51.146;17.112;2022-09-06T01:24:10;100978.80;;;14.90
68952;BMP180;56000;51.146;17.112;2022-09-06T01:30:05;100973.00;;;14.90
68952;BMP180;56000;51.146;17.112;2022-09-06T01:32:43;100978.80;;;14.90
68952;BMP180;56000;51.146;17.112;2022-09-06T01:35:25;100979.20;;;14.90
68952;BMP180;56000;51.146;17.112;2022-09-06T01:37:56;100979.80;;;14.90
68952;BMP180;56000;51.146;17.112;2022-09-06T01:40:26;100976.80;;;14.90
68952;BMP180;56000;51.146;17.112;2022-09-06T01:42:57;100978.20;;;14.90
68952;BMP180;56000;51.146;17.112;2022-09-06T01:45:34;100980.40;;;14.90
68952;BMP180;56000;51.146;17.112;2022-09-06T01:48:16;100985.60;;;14.90
68952;BMP180;56000;51.146;17.112;2022-09-06T01:50:53;100982.20;;;14.90
68952;BMP180;56000;51.146;17.112;2022-09-06T01:56:47;100988.20;;;14.88
68952;BMP180;56000;51.146;17.112;2022-09-06T01:59:35;100985.20;;;14.80
68952;BMP180;56000;51.146;17.112;2022-09-06T02:02:12;100985.60;;;14.80
68952;BMP180;56000;51.146;17.112;2022-09-06T02:04:49;100984.80;;;14.80
68952;BMP180;56000;51.146;17.112;2022-09-06T02:07:23;100985.40;;;14.80
68952;BMP180;56000;51.146;17.112;2022-09-06T02:09:57;100984.00;;;14.80
68952;BMP180;56000;51.146;17.112;2022-09-06T02:12:30;100981.20;;;14.80
68952;BMP180;56000;51.146;17.112;2022-09-06T02:15:05;100980.00;;;14.80
68952;BMP180;56000;51.146;17.112;2022-09-06T02:17:40;100977.40;;;14.80
68952;BMP180;56000;51.146;17.112;2022-09-06T02:20:15;100982.00;;;14.78
68952;BMP180;56000;51.146;17.112;2022-09-06T02:22:47;100977.80;;;14.70
68952;BMP180;56000;51.146;17.112;2022-09-06T02:25:22;100968.20;;;14.62
68952;BMP180;56000;51.146;17.112;2022-09-06T02:27:53;100969.80;;;14.60
68952;BMP180;56000;51.146;17.112;2022-09-06T02:30:23;100971.00;;;14.50
68952;BMP180;56000;51.146;17.112;2022-09-06T02:32:57;100969.40;;;14.40
68952;BMP180;56000;51.146;17.112;2022-09-06T02:35:30;100968.20;;;14.40
68952;BMP180;56000;51.146;17.112;2022-09-06T02:38:01;100972.40;;;14.30
68952;BMP180;56000;51.146;17.112;2022-09-06T02:40:31;100967.00;;;14.24
68952;BMP180;56000;51.146;17.112;2022-09-06T02:43:00;100966.00;;;14.20
68952;BMP180;56000;51.146;17.112;2022-09-06T02:45:30;100969.40;;;14.12
68952;BMP180;56000;51.146;17.112;2022-09-06T02:47:59;100973.20;;;14.10
68952;BMP180;56000;51.146;17.112;2022-09-06T02:50:29;100969.40;;;14.10
68952;BMP180;56000;51.146;17.112;2022-09-06T02:53:04;100969.80;;;14.00
68952;BMP180;56000;51.146;17.112;2022-09-06T02:55:34;100969.20;;;14.00
68952;BMP180;56000;51.146;17.112;2022-09-06T02:58:05;100965.20;;;13.94
68952;BMP180;56000;51.146;17.112;2022-09-06T03:00:35;100961.20;;;13.90
68952;BMP180;56000;51.146;17.112;2022-09-06T03:03:05;100952.60;;;13.90
68952;BMP180;56000;51.146;17.112;2022-09-06T03:05:35;100955.00;;;13.80
68952;BMP180;56000;51.146;17.112;2022-09-06T03:08:04;100953.20;;;13.70
68952;BMP180;56000;51.146;17.112;2022-09-06T03:10:34;100953.20;;;13.70
68952;BMP180;56000;51.146;17.112;2022-09-06T03:13:03;100954.20;;;13.60
68952;BMP180;56000;51.146;17.112;2022-09-06T03:15:33;100950.00;;;13.58
68952;BMP180;56000;51.146;17.112;2022-09-06T03:18:02;100947.00;;;13.50
68952;BMP180;56000;51.146;17.112;2022-09-06T03:20:31;100949.60;;;13.50
68952;BMP180;56000;51.146;17.112;2022-09-06T03:23:05;100948.40;;;13.40
68952;BMP180;56000;51.146;17.112;2022-09-06T03:25:35;100946.20;;;13.40
68952;BMP180;56000;51.146;17.112;2022-09-06T03:28:04;100952.20;;;13.40
68952;BMP180;56000;51.146;17.112;2022-09-06T03:30:33;100954.40;;;13.30
68952;BMP180;56000;51.146;17.112;2022-09-06T03:33:03;100949.40;;;13.28
68952;BMP180;56000;51.146;17.112;2022-09-06T03:35:32;100948.40;;;13.20
68952;BMP180;56000;51.146;17.112;2022-09-06T03:38:02;100945.80;;;13.20
68952;BMP180;56000;51.146;17.112;2022-09-06T03:40:31;100949.00;;;13.20
68952;BMP180;56000;51.146;17.112;2022-09-06T03:43:00;100954.60;;;13.22
68952;BMP180;56000;51.146;17.112;2022-09-06T03:45:30;100949.60;;;13.30
68952;BMP180;56000;51.146;17.112;2022-09-06T03:47:59;100945.20;;;13.30
68952;BMP180;56000;51.146;17.112;2022-09-06T03:50:28;100945.20;;;13.30
68952;BMP180;56000;51.146;17.112;2022-09-06T03:52:58;100947.20;;;13.30
68952;BMP180;56000;51.146;17.112;2022-09-06T03:55:27;100945.40;;;13.34
68952;BMP180;56000;51.146;17.112;2022-09-06T03:57:57;100943.80;;;13.40
68952;BMP180;56000;51.146;17.112;2022-09-06T04:00:26;100947.20;;;13.40
68952;BMP180;56000;51.146;17.112;2022-09-06T04:02:56;100946.80;;;13.40
68952;BMP180;56000;51.146;17.112;2022-09-06T04:05:29;100945.40;;;13.50
68952;BMP180;56000;51.146;17.112;2022-09-06T04:07:59;100942.20;;;13.50
68952;BMP180;56000;51.146;17.112;2022-09-06T04:10:29;100942.80;;;13.50
68952;BMP180;56000;51.146;17.112;2022-09-06T04:12:58;100940.20;;;13.50
68952;BMP180;56000;51.146;17.112;2022-09-06T04:15:27;100934.80;;;13.50
68952;BMP180;56000;51.146;17.112;2022-09-06T04:17:57;100934.80;;;13.50
68952;BMP180;56000;51.146;17.112;2022-09-06T04:20:27;100931.80;;;13.50
68952;BMP180;56000;51.146;17.112;2022-09-06T04:22:56;100933.80;;;13.50
68952;BMP180;56000;51.146;17.112;2022-09-06T04:25:25;100933.60;;;13.58
68952;BMP180;56000;51.146;17.112;2022-09-06T04:27:55;100934.60;;;13.60
68952;BMP180;56000;51.146;17.112;2022-09-06T04:30:24;100934.60;;;13.60
68952;BMP180;56000;51.146;17.112;2022-09-06T04:32:53;100931.40;;;13.60
68952;BMP180;56000;51.146;17.112;2022-09-06T04:35:22;100931.40;;;13.60
68952;BMP180;56000;51.146;17.112;2022-09-06T04:37:52;100937.60;;;13.60
68952;BMP180;56000;51.146;17.112;2022-09-06T04:40:21;100936.00;;;13.70
68952;BMP180;56000;51.146;17.112;2022-09-06T04:42:50;100938.40;;;13.70
68952;BMP180;56000;51.146;17.112;2022-09-06T04:45:20;100933.00;;;13.70
68952;BMP180;56000;51.146;17.112;2022-09-06T04:47:49;100930.60;;;13.70
68952;BMP180;56000;51.146;17.112;2022-09-06T04:50:19;100921.00;;;13.70
68952;BMP180;56000;51.146;17.112;2022-09-06T04:52:49;100917.80;;;13.70
68952;BMP180;56000;51.146;17.112;2022-09-06T04:55:18;100921.80;;;13.70
68952;BMP180;56000;51.146;17.112;2022-09-06T04:57:47;100923.40;;;13.70
68952;BMP180;56000;51.146;17.112;2022-09-06T05:00:20;100918.00;;;13.70
68952;BMP180;56000;51.146;17.112;2022-09-06T05:02:49;100924.40;;;13.70
68952;BMP180;56000;51.146;17.112;2022-09-06T05:05:18;100931.20;;;13.80
68952;BMP180;56000;51.146;17.112;2022-09-06T05:07:50;100935.00;;;13.80
68952;BMP180;56000;51.146;17.112;2022-09-06T05:10:20;100937.00;;;13.80
68952;BMP180;56000;51.146;17.112;2022-09-06T05:12:51;100938.60;;;13.90
68952;BMP180;56000;51.146;17.112;2022-09-06T05:15:22;100945.00;;;13.90
68952;BMP180;56000;51.146;17.112;2022-09-06T05:17:51;100947.80;;;14.00
68952;BMP180;56000;51.146;17.112;2022-09-06T05:20:20;100951.00;;;14.00
68952;BMP180;56000;51.146;17.112;2022-09-06T05:22:53;100954.60;;;14.10
68952;BMP180;56000;51.146;17.112;2022-09-06T05:25:22;100953.60;;;14.10
68952;BMP180;56000;51.146;17.112;2022-09-06T05:27:52;100953.80;;;14.10
68952;BMP180;56000;51.146;17.112;2022-09-06T05:30:21;100947.80;;;14.10
68952;BMP180;56000;51.146;17.112;2022-09-06T05:32:51;100955.20;;;14.10
68952;BMP180;56000;51.146;17.112;2022-09-06T05:35:21;100952.20;;;14.10
68952;BMP180;56000;51.146;17.112;2022-09-06T05:37:50;100954.40;;;14.18
68952;BMP180;56000;51.146;17.112;2022-09-06T05:40:19;100963.20;;;14.20
68952;BMP180;56000;51.146;17.112;2022-09-06T05:42:49;100961.40;;;14.22
68952;BMP180;56000;51.146;17.112;2022-09-06T05:45:18;100965.40;;;14.30
68952;BMP180;56000;51.146;17.112;2022-09-06T05:47:48;100962.60;;;14.40
68952;BMP180;56000;51.146;17.112;2022-09-06T05:50:17;100963.00;;;14.50
68952;BMP180;56000;51.146;17.112;2022-09-06T05:52:46;100955.00;;;14.50
68952;BMP180;56000;51.146;17.112;2022-09-06T05:55:16;100952.60;;;14.60
68952;BMP180;56000;51.146;17.112;2022-09-06T05:57:46;100951.40;;;14.80
68952;BMP180;56000;51.146;17.112;2022-09-06T06:00:16;100949.60;;;14.90
68952;BMP180;56000;51.146;17.112;2022-09-06T06:02:47;100953.20;;;15.10
68952;BMP180;56000;51.146;17.112;2022-09-06T06:05:17;100962.00;;;15.10
68952;BMP180;56000;51.146;17.112;2022-09-06T06:07:46;100956.60;;;15.10
68952;BMP180;56000;51.146;17.112;2022-09-06T06:10:16;100952.20;;;15.20
68952;BMP180;56000;51.146;17.112;2022-09-06T06:12:46;100952.80;;;15.40
68952;BMP180;56000;51.146;17.112;2022-09-06T06:15:15;100955.20;;;15.50
68952;BMP180;56000;51.146;17.112;2022-09-06T06:17:45;100954.40;;;15.60
68952;BMP180;56000;51.146;17.112;2022-09-06T06:20:15;100949.80;;;15.70
68952;BMP180;56000;51.146;17.112;2022-09-06T06:22:44;100951.40;;;15.90
68952;BMP180;56000;51.146;17.112;2022-09-06T06:25:14;100960.40;;;16.10
68952;BMP180;56000;51.146;17.112;2022-09-06T06:27:43;100964.00;;;16.20
68952;BMP180;56000;51.146;17.112;2022-09-06T06:30:13;100960.40;;;16.10
68952;BMP180;56000;51.146;17.112;2022-09-06T06:32:46;100952.80;;;16.00
68952;BMP180;56000;51.146;17.112;2022-09-06T06:35:16;100949.20;;;16.08
68952;BMP180;56000;51.146;17.112;2022-09-06T06:37:45;100953.00;;;16.10
68952;BMP180;56000;51.146;17.112;2022-09-06T06:40:15;100949.40;;;16.10
68952;BMP180;56000;51.146;17.112;2022-09-06T06:42:45;100951.20;;;16.10
68952;BMP180;56000;51.146;17.112;2022-09-06T06:45:14;100949.00;;;16.10
68952;BMP180;56000;51.146;17.112;2022-09-06T06:47:49;100946.00;;;16.10
68952;BMP180;56000;51.146;17.112;2022-09-06T06:50:18;100949.40;;;16.12
68952;BMP180;56000;51.146;17.112;2022-09-06T06:52:47;100943.60;;;16.20
68952;BMP180;56000;51.146;17.112;2022-09-06T06:55:17;100952.80;;;16.22
68952;BMP180;56000;51.146;17.112;2022-09-06T06:57:47;100955.00;;;16.30
68952;BMP180;56000;51.146;17.112;2022-09-06T07:00:17;100951.20;;;16.30
68952;BMP180;56000;51.146;17.112;2022-09-06T07:02:47;100947.40;;;16.30
68952;BMP180;56000;51.146;17.112;2022-09-06T07:05:16;100954.20;;;16.30
68952;BMP180;56000;51.146;17.112;2022-09-06T07:08:07;100949.80;;;16.26
68952;BMP180;56000;51.146;17.112;2022-09-06T07:10:36;100951.60;;;16.20
68952;BMP180;56000;51.146;17.112;2022-09-06T07:13:05;100946.40;;;16.20
68952;BMP180;56000;51.146;17.112;2022-09-06T07:15:35;100948.60;;;16.30
68952;BMP180;56000;51.146;17.112;2022-09-06T07:18:04;100948.80;;;16.30
68952;BMP180;56000;51.146;17.112;2022-09-06T07:20:34;100953.80;;;16.30
68952;BMP180;56000;51.146;17.112;2022-09-06T07:23:24;100955.40;;;16.40
68952;BMP180;56000;51.146;17.112;2022-09-06T07:26:18;100953.60;;;16.40
68952;BMP180;56000;51.146;17.112;2022-09-06T07:28:49;100956.40;;;16.50
68952;BMP180;56000;51.146;17.112;2022-09-06T07:31:20;100959.00;;;16.50
68952;BMP180;56000;51.146;17.112;2022-09-06T07:34:10;100957.00;;;16.50
68952;BMP180;56000;51.146;17.112;2022-09-06T07:36:39;100962.20;;;16.50
68952;BMP180;56000;51.146;17.112;2022-09-06T07:39:08;100959.80;;;16.50
68952;BMP180;56000;51.146;17.112;2022-09-06T07:41:38;100969.00;;;16.50
68952;BMP180;56000;51.146;17.112;2022-09-06T07:44:07;100968.00;;;16.50
68952;BMP180;56000;51.146;17.112;2022-09-06T07:46:36;100970.80;;;16.50
68952;BMP180;56000;51.146;17.112;2022-09-06T07:49:06;100973.60;;;16.60
68952;BMP180;56000;51.146;17.112;2022-09-06T07:51:36;100977.60;;;16.70
68952;BMP180;56000;51.146;17.112;2022-09-06T07:54:06;100979.80;;;16.76
68952;BMP180;56000;51.146;17.112;2022-09-06T07:56:56;100983.00;;;16.80
68952;BMP180;56000;51.146;17.112;2022-09-06T07:59:25;100980.40;;;16.80
68952;BMP180;56000;51.146;17.112;2022-09-06T08:01:55;100976.80;;;16.80
68952;BMP180;56000;51.146;17.112;2022-09-06T08:04:25;100979.20;;;16.80
68952;BMP180;56000;51.146;17.112;2022-09-06T08:06:54;100977.60;;;16.90
68952;BMP180;56000;51.146;17.112;2022-09-06T08:09:44;100974.40;;;17.00
68952;BMP180;56000;51.146;17.112;2022-09-06T08:12:14;100971.40;;;17.06
68952;BMP180;56000;51.146;17.112;2022-09-06T08:14:43;100971.80;;;17.20
68952;BMP180;56000;51.146;17.112;2022-09-06T08:17:13;100971.60;;;17.30
68952;BMP180;56000;51.146;17.112;2022-09-06T08:19:42;100962.80;;;17.40
68952;BMP180;56000;51.146;17.112;2022-09-06T08:22:14;100962.80;;;17.60
68952;BMP180;56000;51.146;17.112;2022-09-06T08:24:43;100959.00;;;17.80
68952;BMP180;56000;51.146;17.112;2022-09-06T08:27:13;100954.80;;;17.90
68952;BMP180;56000;51.146;17.112;2022-09-06T08:29:42;100949.80;;;18.10
68952;BMP180;56000;51.146;17.112;2022-09-06T08:32:12;100947.40;;;18.30
68952;BMP180;56000;51.146;17.112;2022-09-06T08:34:41;100939.80;;;18.40
68952;BMP180;56000;51.146;17.112;2022-09-06T08:37:10;100933.20;;;18.40
68952;BMP180;56000;51.146;17.112;2022-09-06T08:39:40;100933.00;;;18.58
68952;BMP180;56000;51.146;17.112;2022-09-06T08:42:10;100938.40;;;18.70
68952;BMP180;56000;51.146;17.112;2022-09-06T08:44:43;100933.40;;;18.80
68952;BMP180;56000;51.146;17.112;2022-09-06T08:47:25;100927.20;;;19.00
68952;BMP180;56000;51.146;17.112;2022-09-06T08:49:56;100940.60;;;19.10
68952;BMP180;56000;51.146;17.112;2022-09-06T08:52:48;100937.60;;;19.12
68952;BMP180;56000;51.146;17.112;2022-09-06T08:55:43;100937.20;;;19.00
68952;BMP180;56000;51.146;17.112;2022-09-06T08:58:38;100936.00;;;19.10
68952;BMP180;56000;51.146;17.112;2022-09-06T09:01:26;100933.60;;;19.40
68952;BMP180;56000;51.146;17.112;2022-09-06T09:04:00;100935.40;;;20.14
68952;BMP180;56000;51.146;17.112;2022-09-06T09:06:32;100928.40;;;21.00
68952;BMP180;56000;51.146;17.112;2022-09-06T09:09:05;100925.60;;;21.80
68952;BMP180;56000;51.146;17.112;2022-09-06T09:11:36;100918.60;;;22.28
68952;BMP180;56000;51.146;17.112;2022-09-06T09:14:15;100920.00;;;22.86
68952;BMP180;56000;51.146;17.112;2022-09-06T09:16:50;100917.60;;;23.48
68952;BMP180;56000;51.146;17.112;2022-09-06T09:19:19;100918.20;;;24.02
68952;BMP180;56000;51.146;17.112;2022-09-06T09:21:49;100916.20;;;24.72
68952;BMP180;56000;51.146;17.112;2022-09-06T09:24:18;100918.60;;;25.16
68952;BMP180;56000;51.146;17.112;2022-09-06T09:26:54;100920.20;;;25.60
68952;BMP180;56000;51.146;17.112;2022-09-06T09:29:25;100921.40;;;26.14
68952;BMP180;56000;51.146;17.112;2022-09-06T09:31:59;100921.20;;;26.94
68952;BMP180;56000;51.146;17.112;2022-09-06T09:34:31;100918.60;;;27.18
68952;BMP180;56000;51.146;17.112;2022-09-06T09:37:19;100918.20;;;27.78
68952;BMP180;56000;51.146;17.112;2022-09-06T09:40:14;100909.40;;;27.70
68952;BMP180;56000;51.146;17.112;2022-09-06T09:42:44;100915.60;;;27.50
68952;BMP180;56000;51.146;17.112;2022-09-06T09:45:27;100918.40;;;27.22
68952;BMP180;56000;51.146;17.112;2022-09-06T09:48:16;100920.40;;;26.58
68952;BMP180;56000;51.146;17.112;2022-09-06T09:50:46;100921.60;;;25.96
68952;BMP180;56000;51.146;17.112;2022-09-06T09:53:18;100924.80;;;25.40
68952;BMP180;56000;51.146;17.112;2022-09-06T09:55:55;100923.80;;;24.98
68952;BMP180;56000;51.146;17.112;2022-09-06T09:58:34;100922.40;;;24.80
68952;BMP180;56000;51.146;17.112;2022-09-06T10:01:19;100924.60;;;24.60
68952;BMP180;56000;51.146;17.112;2022-09-06T10:03:51;100927.00;;;24.38
68952;BMP180;56000;51.146;17.112;2022-09-06T10:06:48;100928.60;;;24.10
68952;BMP180;56000;51.146;17.112;2022-09-06T10:09:40;100926.20;;;23.90
68952;BMP180;56000;51.146;17.112;2022-09-06T10:12:16;100915.40;;;24.30
68952;BMP180;56000;51.146;17.112;2022-09-06T10:14:48;100907.00;;;24.70
68952;BMP180;56000;51.146;17.112;2022-09-06T10:17:30;100908.40;;;25.00
68952;BMP180;56000;51.146;17.112;2022-09-06T10:20:05;100914.40;;;25.00
68952;BMP180;56000;51.146;17.112;2022-09-06T10:22:45;100912.40;;;25.00
68952;BMP180;56000;51.146;17.112;2022-09-06T10:25:39;100913.60;;;24.80
68952;BMP180;56000;51.146;17.112;2022-09-06T10:28:29;100914.60;;;24.30
68952;BMP180;56000;51.146;17.112;2022-09-06T10:31:26;100905.80;;;23.90
68952;BMP180;56000;51.146;17.112;2022-09-06T10:34:30;100899.60;;;23.54
68952;BMP180;56000;51.146;17.112;2022-09-06T10:37:14;100899.60;;;23.50
68952;BMP180;56000;51.146;17.112;2022-09-06T10:39:51;100893.80;;;23.70
68952;BMP180;56000;51.146;17.112;2022-09-06T10:42:36;100889.00;;;23.96
68952;BMP180;56000;51.146;17.112;2022-09-06T10:45:37;100877.20;;;24.20
68952;BMP180;56000;51.146;17.112;2022-09-06T10:48:15;100874.80;;;24.32
68952;BMP180;56000;51.146;17.112;2022-09-06T10:50:53;100869.00;;;24.60
68952;BMP180;56000;51.146;17.112;2022-09-06T10:53:45;100862.20;;;24.78
68952;BMP180;56000;51.146;17.112;2022-09-06T10:56:21;100857.40;;;25.58
68952;BMP180;56000;51.146;17.112;2022-09-06T10:58:58;100860.00;;;26.90
68952;BMP180;56000;51.146;17.112;2022-09-06T11:02:05;100857.00;;;27.10
68952;BMP180;56000;51.146;17.112;2022-09-06T11:04:38;100858.00;;;27.30
68952;BMP180;56000;51.146;17.112;2022-09-06T11:07:31;100841.40;;;27.56
68952;BMP180;56000;51.146;17.112;2022-09-06T11:10:08;100838.60;;;28.30
68952;BMP180;56000;51.146;17.112;2022-09-06T11:12:48;100828.40;;;28.22
68952;BMP180;56000;51.146;17.112;2022-09-06T11:15:20;100827.40;;;29.34
68952;BMP180;56000;51.146;17.112;2022-09-06T11:17:55;100825.00;;;30.28
68952;BMP180;56000;51.146;17.112;2022-09-06T11:20:33;100821.40;;;30.20
68952;BMP180;56000;51.146;17.112;2022-09-06T11:23:39;100823.00;;;29.36
68952;BMP180;56000;51.146;17.112;2022-09-06T11:26:31;100818.60;;;28.36
68952;BMP180;56000;51.146;17.112;2022-09-06T11:29:06;100818.00;;;28.10
68952;BMP180;56000;51.146;17.112;2022-09-06T11:31:52;100820.20;;;28.24
68952;BMP180;56000;51.146;17.112;2022-09-06T11:34:51;100827.40;;;29.46
68952;BMP180;56000;51.146;17.112;2022-09-06T11:37:28;100827.20;;;29.80
68952;BMP180;56000;51.146;17.112;2022-09-06T11:40:14;100831.60;;;30.36
68952;BMP180;56000;51.146;17.112;2022-09-06T11:43:46;100831.20;;;30.12
68952;BMP180;56000;51.146;17.112;2022-09-06T11:46:59;100829.20;;;29.44
68952;BMP180;56000;51.146;17.112;2022-09-06T11:49:38;100827.20;;;28.34
68952;BMP180;56000;51.146;17.112;2022-09-06T11:53:08;100820.20;;;27.90
68952;BMP180;56000;51.146;17.112;2022-09-06T11:55:45;100827.20;;;28.66
68952;BMP180;56000;51.146;17.112;2022-09-06T11:58:30;100826.40;;;28.90
68952;BMP180;56000;51.146;17.112;2022-09-06T12:01:35;100825.40;;;28.82
68952;BMP180;56000;51.146;17.112;2022-09-06T12:04:08;100816.80;;;28.80
68952;BMP180;56000;51.146;17.112;2022-09-06T12:06:41;100823.40;;;28.82
68952;BMP180;56000;51.146;17.112;2022-09-06T12:09:34;100821.80;;;28.22
68952;BMP180;56000;51.146;17.112;2022-09-06T12:12:07;100822.80;;;27.60
68952;BMP180;56000;51.146;17.112;2022-09-06T12:14:44;100821.80;;;27.20
68952;BMP180;56000;51.146;17.112;2022-09-06T12:17:23;100818.40;;;26.92
68952;BMP180;56000;51.146;17.112;2022-09-06T12:19:56;100818.20;;;26.50
68952;BMP180;56000;51.146;17.112;2022-09-06T12:23:02;100814.20;;;26.00
68952;BMP180;56000;51.146;17.112;2022-09-06T12:25:56;100810.40;;;25.60
68952;BMP180;56000;51.146;17.112;2022-09-06T12:28:45;100799.80;;;25.26
68952;BMP180;56000;51.146;17.112;2022-09-06T12:31:34;100797.20;;;25.00
68952;BMP180;56000;51.146;17.112;2022-09-06T12:34:12;100799.80;;;24.66
68952;BMP180;56000;51.146;17.112;2022-09-06T12:36:51;100794.00;;;24.50
68952;BMP180;56000;51.146;17.112;2022-09-06T12:39:22;100790.40;;;24.46
68952;BMP180;56000;51.146;17.112;2022-09-06T12:41:53;100792.60;;;24.54
68952;BMP180;56000;51.146;17.112;2022-09-06T12:44:31;100793.00;;;24.60
68952;BMP180;56000;51.146;17.112;2022-09-06T12:47:10;100792.60;;;24.80
68952;BMP180;56000;51.146;17.112;2022-09-06T12:49:40;100787.20;;;24.96
68952;BMP180;56000;51.146;17.112;2022-09-06T12:52:13;100783.40;;;25.22
68952;BMP180;56000;51.146;17.112;2022-09-06T12:54:47;100784.00;;;25.64
68952;BMP180;56000;51.146;17.112;2022-09-06T12:57:21;100791.80;;;26.28
68952;BMP180;56000;51.146;17.112;2022-09-06T12:59:55;100791.40;;;26.96
68952;BMP180;56000;51.146;17.112;2022-09-06T13:02:33;100787.00;;;27.72
68952;BMP180;56000;51.146;17.112;2022-09-06T13:05:11;100783.40;;;28.56
68952;BMP180;56000;51.146;17.112;2022-09-06T13:07:44;100782.40;;;29.38
68952;BMP180;56000;51.146;17.112;2022-09-06T13:10:17;100776.60;;;29.80
68952;BMP180;56000;51.146;17.112;2022-09-06T13:12:49;100770.00;;;30.08
68952;BMP180;56000;51.146;17.112;2022-09-06T13:15:24;100767.80;;;30.58
68952;BMP180;56000;51.146;17.112;2022-09-06T13:20:44;100759.20;;;31.76
68952;BMP180;56000;51.146;17.112;2022-09-06T13:23:25;100750.40;;;31.76
68952;BMP180;56000;51.146;17.112;2022-09-06T13:25:55;100749.00;;;31.30
68952;BMP180;56000;51.146;17.112;2022-09-06T13:28:28;100747.60;;;31.10
68952;BMP180;56000;51.146;17.112;2022-09-06T13:31:08;100741.40;;;31.10
68952;BMP180;56000;51.146;17.112;2022-09-06T13:33:39;100739.60;;;31.20
68952;BMP180;56000;51.146;17.112;2022-09-06T13:36:21;100735.80;;;31.62
68952;BMP180;56000;51.146;17.112;2022-09-06T13:38:51;100730.60;;;31.90
68952;BMP180;56000;51.146;17.112;2022-09-06T13:41:38;100724.20;;;31.44
68952;BMP180;56000;51.146;17.112;2022-09-06T13:44:25;100717.80;;;30.80
68952;BMP180;56000;51.146;17.112;2022-09-06T13:46:55;100716.40;;;29.92
68952;BMP180;56000;51.146;17.112;2022-09-06T13:49:26;100723.40;;;29.14
68952;BMP180;56000;51.146;17.112;2022-09-06T13:51:59;100719.60;;;28.58
68952;BMP180;56000;51.146;17.112;2022-09-06T13:54:30;100729.60;;;28.20
68952;BMP180;56000;51.146;17.112;2022-09-06T13:57:00;100734.00;;;28.12
68952;BMP180;56000;51.146;17.112;2022-09-06T13:59:30;100727.60;;;28.20
68952;BMP180;56000;51.146;17.112;2022-09-06T14:02:03;100734.20;;;28.38
68952;BMP180;56000;51.146;17.112;2022-09-06T14:04:34;100733.20;;;28.40
68952;BMP180;56000;51.146;17.112;2022-09-06T14:07:05;100734.00;;;28.16
68952;BMP180;56000;51.146;17.112;2022-09-06T14:09:35;100729.00;;;27.60
68952;BMP180;56000;51.146;17.112;2022-09-06T14:12:06;100730.00;;;27.40
68952;BMP180;56000;51.146;17.112;2022-09-06T14:14:35;100729.00;;;27.30
68952;BMP180;56000;51.146;17.112;2022-09-06T14:17:05;100731.00;;;27.10
68952;BMP180;56000;51.146;17.112;2022-09-06T14:19:34;100714.40;;;26.80
68952;BMP180;56000;51.146;17.112;2022-09-06T14:22:04;100713.00;;;26.60
68952;BMP180;56000;51.146;17.112;2022-09-06T14:24:35;100713.60;;;26.50
68952;BMP180;56000;51.146;17.112;2022-09-06T14:27:05;100711.00;;;26.18
68952;BMP180;56000;51.146;17.112;2022-09-06T14:29:36;100708.40;;;25.76
68952;BMP180;56000;51.146;17.112;2022-09-06T14:32:06;100707.00;;;25.42
68952;BMP180;56000;51.146;17.112;2022-09-06T14:34:35;100697.60;;;25.20
68952;BMP180;56000;51.146;17.112;2022-09-06T14:37:05;100695.80;;;25.00